createdAt,value
2023-02-11T00:01:09.003Z,25.48
2023-02-11T00:03:37.438Z,23.73
2023-02-11T00:06:09.134Z,24.20
2023-02-11T00:08:37.479Z,25.20
2023-02-11T00:11:06.160Z,23.40
2023-02-11T00:13:35.787Z,25.65
2023-02-11T00:16:08.993Z,22.30
2023-02-11T00:18:37.340Z,23.70
2023-02-11T00:21:09.488Z,24.83
2023-02-11T00:23:38.126Z,23.55
2023-02-11T00:26:11.790Z,24.17
2023-02-11T00:28:41.449Z,22.70
2023-02-11T00:31:09.898Z,24.63
2023-02-11T00:33:38.246Z,24.08
2023-02-11T00:36:07.116Z,24.13
2023-02-11T00:38:35.482Z,22.30
2023-02-11T00:41:03.799Z,23.70
2023-02-11T00:43:32.081Z,24.25
2023-02-11T00:46:01.810Z,23.02
2023-02-11T00:48:30.112Z,24.77
2023-02-11T00:50:58.396Z,24.85
2023-02-11T00:53:26.697Z,24.85
2023-02-11T00:55:54.973Z,21.88
2023-02-11T00:58:23.418Z,23.67
2023-02-11T01:00:51.726Z,22.17
2023-02-11T01:03:21.557Z,24.00
2023-02-11T01:05:50.077Z,22.83
2023-02-11T01:08:18.460Z,22.42
2023-02-11T01:10:46.761Z,24.67
2023-02-11T01:13:15.011Z,23.23
2023-02-11T01:15:43.289Z,21.50
2023-02-11T01:18:11.500Z,23.35
2023-02-11T01:20:41.147Z,24.25
2023-02-11T01:23:09.409Z,23.35
2023-02-11T01:25:37.726Z,24.73
2023-02-11T01:28:06.261Z,23.08
2023-02-11T01:30:35.662Z,23.35
2023-02-11T01:33:03.930Z,23.08
2023-02-11T01:35:32.210Z,23.52
2023-02-11T01:38:01.835Z,23.77
2023-02-11T01:40:30.868Z,24.38
2023-02-11T01:42:59.124Z,23.80
2023-02-11T01:46:15.954Z,21.58
2023-02-11T01:48:47.094Z,22.48
2023-02-11T01:51:18.337Z,23.05
2023-02-11T01:54:05.566Z,24.42
2023-02-11T01:56:51.520Z,24.15
2023-02-11T01:59:23.981Z,22.77
2023-02-11T02:01:54.497Z,24.52
2023-02-11T02:04:22.788Z,23.70
2023-02-11T02:06:53.152Z,23.02
2023-02-11T02:09:25.085Z,23.85
2023-02-11T02:11:53.333Z,23.23
2023-02-11T02:14:21.627Z,23.17
2023-02-11T02:16:49.951Z,23.80
2023-02-11T02:19:48.913Z,23.75
2023-02-11T02:22:48.040Z,25.47
2023-02-11T02:26:03.846Z,23.93
2023-02-11T02:29:21.884Z,24.10
2023-02-11T02:32:39.299Z,24.07
2023-02-11T02:35:16.758Z,25.73
2023-02-11T02:37:52.118Z,22.70
2023-02-11T02:40:24.288Z,24.65
2023-02-11T02:42:52.567Z,24.60
2023-02-11T02:45:20.807Z,24.60
2023-02-11T02:47:50.572Z,23.90
2023-02-11T02:50:22.995Z,24.10
2023-02-11T02:52:57.122Z,24.13
2023-02-11T02:55:53.632Z,23.27
2023-02-11T02:58:50.401Z,23.80
2023-02-11T03:01:27.473Z,23.70
2023-02-11T03:04:03.313Z,25.43
2023-02-11T03:06:34.958Z,24.00
2023-02-11T03:09:09.657Z,24.23
2023-02-11T03:11:39.289Z,23.90
2023-02-11T03:14:10.470Z,24.90
2023-02-11T03:16:39.332Z,26.63
2023-02-11T03:19:13.250Z,25.03
2023-02-11T03:21:42.110Z,26.87
2023-02-11T03:24:13.513Z,25.90
2023-02-11T03:26:44.814Z,25.23
2023-02-11T03:29:17.863Z,26.00
2023-02-11T03:31:52.392Z,25.43
2023-02-11T03:34:25.407Z,25.60
2023-02-11T03:36:55.950Z,25.77
2023-02-11T03:39:28.513Z,23.50
2023-02-11T03:41:56.958Z,24.30
2023-02-11T03:44:25.212Z,26.07
2023-02-11T03:46:53.502Z,25.37
2023-02-11T03:49:23.504Z,24.30
2023-02-11T03:51:52.919Z,26.10
2023-02-11T03:54:25.640Z,24.50
2023-02-11T03:56:55.288Z,24.53
2023-02-11T03:59:23.617Z,24.77
2023-02-11T04:01:51.918Z,24.20
2023-02-11T04:04:20.278Z,26.70
2023-02-11T04:06:49.933Z,25.40
2023-02-11T04:09:18.158Z,26.10
2023-02-11T04:11:46.450Z,26.07
2023-02-11T04:14:14.724Z,27.23
2023-02-11T04:16:43.024Z,26.57
2023-02-11T04:19:11.317Z,25.87
2023-02-11T04:21:39.600Z,26.20
2023-02-11T04:24:09.289Z,26.70
2023-02-11T04:26:37.583Z,27.77
2023-02-11T04:29:05.844Z,27.53
2023-02-11T04:31:34.388Z,28.00
2023-02-11T04:34:02.688Z,27.07
2023-02-11T04:36:30.989Z,29.30
2023-02-11T04:38:59.245Z,26.80
2023-02-11T04:41:28.896Z,27.97
2023-02-11T04:43:57.167Z,27.77
2023-02-11T04:46:25.524Z,27.70
2023-02-11T04:48:53.874Z,29.83
2023-02-11T04:51:22.047Z,29.53
2023-02-11T04:53:50.321Z,28.13
2023-02-11T04:56:18.616Z,28.07
2023-02-11T04:58:48.272Z,27.90
2023-02-11T05:01:17.118Z,28.47
2023-02-11T05:03:45.433Z,29.50
2023-02-11T05:06:13.734Z,29.33
2023-02-11T05:08:41.979Z,29.50
2023-02-11T05:11:11.522Z,29.97
2023-02-11T05:13:40.112Z,30.50
2023-02-11T05:16:09.892Z,29.20
2023-02-11T05:18:39.068Z,30.53
2023-02-11T05:21:08.901Z,29.10
2023-02-11T05:23:37.248Z,28.93
2023-02-11T05:26:05.975Z,30.10
2023-02-11T05:28:35.247Z,28.90
2023-02-11T05:31:03.630Z,28.80
2023-02-11T05:33:33.306Z,30.33
2023-02-11T05:36:02.188Z,31.30
2023-02-11T05:38:30.536Z,31.57
2023-02-11T05:40:58.820Z,30.83
2023-02-11T05:43:27.209Z,31.47
2023-02-11T05:45:55.547Z,31.50
2023-02-11T05:48:23.883Z,32.50
2023-02-11T05:50:53.559Z,31.53
2023-02-11T05:53:21.867Z,32.60
2023-02-11T05:55:50.421Z,33.13
2023-02-11T05:58:18.847Z,32.53
2023-02-11T06:00:47.104Z,32.50
2023-02-11T06:03:15.473Z,31.97
2023-02-11T06:05:44.264Z,32.27
2023-02-11T06:08:13.952Z,35.27
2023-02-11T06:10:43.137Z,33.67
2023-02-11T06:13:11.339Z,34.37
2023-02-11T06:15:39.577Z,32.90
2023-02-11T06:18:08.264Z,36.67
2023-02-11T06:20:37.220Z,33.83
2023-02-11T06:23:05.482Z,35.47
2023-02-11T06:25:35.158Z,35.33
2023-02-11T06:28:03.402Z,32.70
2023-02-11T06:30:31.780Z,35.73
2023-02-11T06:33:00.247Z,35.73
2023-02-11T06:35:28.536Z,34.23
2023-02-11T06:37:56.812Z,36.63
2023-02-11T06:40:25.049Z,35.13
2023-02-11T06:42:54.686Z,34.90
2023-02-11T06:45:22.933Z,36.47
2023-02-11T06:47:52.756Z,37.00
2023-02-11T06:50:21.155Z,35.07
2023-02-11T06:52:49.394Z,35.70
2023-02-11T06:55:18.275Z,35.77
2023-02-11T06:57:46.570Z,37.30
2023-02-11T07:00:18.557Z,36.97
2023-02-11T07:02:46.893Z,35.23
2023-02-11T07:05:15.186Z,34.70
2023-02-11T07:07:43.437Z,34.27
2023-02-11T07:10:11.788Z,36.30
2023-02-11T07:12:40.064Z,35.77
2023-02-11T07:15:09.402Z,37.00
2023-02-11T07:17:39.027Z,35.93
2023-02-11T07:20:09.114Z,35.33
2023-02-11T07:22:37.399Z,36.83
2023-02-11T07:25:06.708Z,36.70
2023-02-11T07:27:35.007Z,35.30
2023-02-11T07:30:04.921Z,37.37
2023-02-11T07:32:35.181Z,35.70
2023-02-11T07:35:05.363Z,37.10
2023-02-11T07:37:35.158Z,39.30
2023-02-11T07:40:03.526Z,36.97
2023-02-11T07:42:31.870Z,37.37
2023-02-11T07:45:00.120Z,37.37
2023-02-11T07:47:28.644Z,37.37
2023-02-11T07:49:56.922Z,37.50
2023-02-11T07:52:26.553Z,38.17
2023-02-11T07:54:54.802Z,37.10
2023-02-11T07:57:23.048Z,38.80
2023-02-11T07:59:51.379Z,37.50
2023-02-11T08:02:19.752Z,36.97
2023-02-11T08:04:48.182Z,37.17
2023-02-11T08:07:17.374Z,37.27
2023-02-11T08:09:47.027Z,38.67
2023-02-11T08:12:15.407Z,35.53
2023-02-11T08:14:43.689Z,35.60
2023-02-11T08:17:11.975Z,35.83
2023-02-11T08:19:40.608Z,40.70
2023-02-11T08:22:08.935Z,37.23
2023-02-11T08:24:37.285Z,35.80
2023-02-11T08:27:07.014Z,34.70
2023-02-11T08:29:35.304Z,36.47
2023-02-11T08:32:03.817Z,36.63
2023-02-11T08:34:32.178Z,34.67
2023-02-11T08:37:00.721Z,36.33
2023-02-11T08:39:28.969Z,33.90
2023-02-11T08:41:57.910Z,35.23
2023-02-11T08:44:27.627Z,33.07
2023-02-11T08:46:55.915Z,32.83
2023-02-11T08:49:24.315Z,36.37
2023-02-11T08:51:52.574Z,34.67
2023-02-11T08:54:20.872Z,33.17
2023-02-11T08:56:52.408Z,36.23
2023-02-11T08:59:20.650Z,33.43
2023-02-11T09:01:50.500Z,33.10
2023-02-11T09:04:18.824Z,33.00
2023-02-11T09:06:47.128Z,32.33
2023-02-11T09:09:16.169Z,33.30
2023-02-11T09:11:45.207Z,33.50
2023-02-11T09:14:17.926Z,32.47
2023-02-11T09:16:46.367Z,32.67
2023-02-11T09:19:16.071Z,31.33
2023-02-11T09:21:44.440Z,31.93
2023-02-11T09:24:12.855Z,31.80
2023-02-11T09:26:42.908Z,30.77
2023-02-11T09:29:11.252Z,33.60
2023-02-11T09:31:39.672Z,34.00
2023-02-11T09:34:08.118Z,32.77
2023-02-11T09:36:38.984Z,32.23
2023-02-11T09:39:08.751Z,30.67
2023-02-11T09:42:11.203Z,31.50
2023-02-11T09:44:39.958Z,31.43
2023-02-11T09:47:25.908Z,29.63
2023-02-11T09:49:57.062Z,28.93
2023-02-11T09:52:33.767Z,30.90
2023-02-11T09:55:03.364Z,32.27
2023-02-11T09:57:34.747Z,32.47
2023-02-11T10:00:03.563Z,30.17
2023-02-11T10:02:49.074Z,29.80
2023-02-11T10:05:27.237Z,29.83
2023-02-11T10:08:02.106Z,31.00
2023-02-11T10:10:41.926Z,30.60
2023-02-11T10:13:38.760Z,30.00
2023-02-11T10:16:22.891Z,28.90
2023-02-11T10:19:20.497Z,32.13
2023-02-11T10:21:58.422Z,29.60
2023-02-11T10:24:29.420Z,30.90
2023-02-11T10:26:57.641Z,30.97
2023-02-11T10:29:36.743Z,27.10
2023-02-11T10:32:08.252Z,28.50
2023-02-11T10:34:39.287Z,28.63
2023-02-11T10:37:07.548Z,31.37
2023-02-11T10:39:38.985Z,29.87
2023-02-11T10:42:08.861Z,30.40
2023-02-11T10:44:39.491Z,29.27
2023-02-11T10:47:13.957Z,30.10
2023-02-11T10:49:43.218Z,29.77
2023-02-11T10:52:22.401Z,29.97
2023-02-11T10:55:03.801Z,29.70
2023-02-11T10:57:37.389Z,32.17
2023-02-11T11:00:22.109Z,29.67
2023-02-11T11:02:56.983Z,29.70
2023-02-11T11:05:31.055Z,29.13
2023-02-11T11:08:00.791Z,28.17
2023-02-11T11:10:43.454Z,29.70
2023-02-11T11:13:31.682Z,28.63
2023-02-11T11:16:23.224Z,28.00
2023-02-11T11:18:52.497Z,29.63
2023-02-11T11:21:23.730Z,29.07
2023-02-11T11:23:57.437Z,28.23
2023-02-11T11:26:28.598Z,27.53
2023-02-11T11:28:59.861Z,26.77
2023-02-11T11:31:32.877Z,29.20
2023-02-11T11:34:02.355Z,28.30
2023-02-11T11:36:39.344Z,27.17
2023-02-11T11:39:21.630Z,28.10
2023-02-11T11:41:54.421Z,26.10
2023-02-11T11:44:31.857Z,27.60
2023-02-11T11:47:26.191Z,27.67
2023-02-11T11:50:23.591Z,26.13
2023-02-11T11:52:55.845Z,25.03
2023-02-11T11:55:26.712Z,26.23
2023-02-11T11:57:56.364Z,25.30
2023-02-11T12:00:29.148Z,26.47
2023-02-11T12:03:18.699Z,27.70
2023-02-11T12:05:53.784Z,24.40
2023-02-11T12:08:25.584Z,24.30
2023-02-11T12:11:02.465Z,24.23
2023-02-11T12:13:41.675Z,23.57
2023-02-11T12:16:18.352Z,24.87
2023-02-11T12:19:19.437Z,25.20
2023-02-11T12:21:54.857Z,23.73
2023-02-11T12:24:41.250Z,23.40
2023-02-11T12:27:13.395Z,22.20
2023-02-11T12:29:52.253Z,23.17
2023-02-11T12:32:28.079Z,22.60
2023-02-11T12:35:21.833Z,23.57
2023-02-11T12:38:11.421Z,23.60
2023-02-11T12:40:44.039Z,22.83
2023-02-11T12:43:20.769Z,21.07
2023-02-11T12:46:03.087Z,20.73
2023-02-11T12:48:48.982Z,21.10
2023-02-11T12:51:24.461Z,19.77
2023-02-11T12:54:16.984Z,19.80
2023-02-11T12:56:47.806Z,18.97
2023-02-11T12:59:21.521Z,19.87
2023-02-11T13:01:51.191Z,19.67
2023-02-11T13:04:23.176Z,18.90
2023-02-11T13:06:54.712Z,19.47
2023-02-11T13:09:25.882Z,19.27
2023-02-11T13:11:57.029Z,19.50
2023-02-11T13:14:28.327Z,18.00
2023-02-11T13:16:58.604Z,18.00
2023-02-11T13:19:30.636Z,17.87
2023-02-11T13:22:07.080Z,18.80
2023-02-11T13:24:44.272Z,17.17
2023-02-11T13:27:23.632Z,18.10
2023-02-11T13:30:30.530Z,18.40
2023-02-11T13:33:23.127Z,18.53
2023-02-11T13:36:11.797Z,18.00
2023-02-11T13:38:40.148Z,18.60
2023-02-11T13:41:21.069Z,17.90
2023-02-11T13:44:00.035Z,18.50
2023-02-11T13:46:29.149Z,17.30
2023-02-11T13:48:58.777Z,17.93
2023-02-11T13:51:37.793Z,17.17
2023-02-11T13:54:06.488Z,18.20
2023-02-11T13:56:36.120Z,19.17
2023-02-11T13:59:05.481Z,18.73
2023-02-11T14:02:20.879Z,18.17
2023-02-11T14:05:49.596Z,17.10
2023-02-11T14:08:43.388Z,16.20
2023-02-11T14:11:44.737Z,19.00
2023-02-11T14:14:24.877Z,18.40
2023-02-11T14:17:31.087Z,16.33
2023-02-11T14:19:59.994Z,17.47
2023-02-11T14:22:31.681Z,18.23
2023-02-11T14:25:00.848Z,16.83
2023-02-11T14:27:37.544Z,19.50
2023-02-11T14:30:40.470Z,16.60
2023-02-11T14:33:55.446Z,15.83
2023-02-11T14:37:04.978Z,16.53
2023-02-11T14:39:46.988Z,18.10
2023-02-11T14:42:19.053Z,16.50
2023-02-11T14:44:47.819Z,15.33
2023-02-11T14:47:18.597Z,17.10
2023-02-11T14:49:46.905Z,16.40
2023-02-11T14:52:27.883Z,15.47
2023-02-11T14:55:08.352Z,13.60
2023-02-11T14:57:37.856Z,16.13
2023-02-11T15:00:15.138Z,15.10
2023-02-11T15:02:44.849Z,15.40
2023-02-11T15:05:22.354Z,13.73
2023-02-11T15:07:53.664Z,14.73
2023-02-11T15:10:29.980Z,14.33
2023-02-11T15:12:58.538Z,15.13
2023-02-11T15:15:27.365Z,13.73
2023-02-11T15:17:56.400Z,14.63
2023-02-11T15:20:28.084Z,14.40
2023-02-11T15:23:00.169Z,13.80
2023-02-11T15:25:33.675Z,14.50
2023-02-11T15:28:02.468Z,13.17
2023-02-11T15:30:34.035Z,14.77
2023-02-11T15:33:05.357Z,14.27
2023-02-11T15:35:36.582Z,13.93
2023-02-11T15:38:05.226Z,14.13
2023-02-11T15:40:36.207Z,14.03
2023-02-11T15:43:05.979Z,14.67
2023-02-11T15:45:35.203Z,14.33
2023-02-11T15:48:12.757Z,14.10
2023-02-11T15:50:42.024Z,13.30
2023-02-11T15:53:32.856Z,13.33
2023-02-11T15:56:06.537Z,13.83
2023-02-11T15:58:38.751Z,13.73
2023-02-11T16:01:07.145Z,11.47
2023-02-11T16:03:35.693Z,13.17
2023-02-11T16:06:20.771Z,11.97
2023-02-11T16:09:03.623Z,11.87
2023-02-11T16:11:34.613Z,11.57
2023-02-11T16:14:06.640Z,12.00
2023-02-11T16:16:35.442Z,13.17
2023-02-11T16:19:06.009Z,13.23
2023-02-11T16:21:39.055Z,13.70
2023-02-11T16:24:08.602Z,11.87
2023-02-11T16:26:40.924Z,12.97
2023-02-11T16:29:12.507Z,12.77
2023-02-11T16:31:42.291Z,12.20
2023-02-11T16:34:18.079Z,12.13
2023-02-11T16:36:46.438Z,12.30
2023-02-11T16:39:14.725Z,14.20
2023-02-11T16:41:44.634Z,11.70
2023-02-11T16:44:13.053Z,12.07
2023-02-11T16:46:41.379Z,11.57
2023-02-11T16:49:12.166Z,11.73
2023-02-11T16:51:41.567Z,11.40
2023-02-11T16:54:16.082Z,11.53
2023-02-11T16:56:45.932Z,11.57
2023-02-11T16:59:14.451Z,12.33
2023-02-11T17:01:43.519Z,12.20
2023-02-11T17:04:15.648Z,11.70
2023-02-11T17:06:44.023Z,7.60
2023-02-11T17:09:17.515Z,9.10
2023-02-11T17:11:47.194Z,7.90
2023-02-11T17:14:15.540Z,9.40
2023-02-11T17:16:44.350Z,10.80
2023-02-11T17:19:13.850Z,11.45
2023-02-11T17:21:43.165Z,10.60
2023-02-11T17:24:11.653Z,11.50
2023-02-11T17:26:40.237Z,11.30
2023-02-11T17:29:10.419Z,11.13
2023-02-11T17:31:38.926Z,11.40
2023-02-11T17:34:07.336Z,12.37
2023-02-11T17:36:35.621Z,11.00
2023-02-11T17:39:07.057Z,10.77
2023-02-11T17:41:38.281Z,10.10
2023-02-11T17:44:06.909Z,10.80
2023-02-11T17:46:37.508Z,10.37
2023-02-11T17:49:05.969Z,11.37
2023-02-11T17:51:35.896Z,10.23
2023-02-11T17:54:08.262Z,11.27
2023-02-11T17:56:37.131Z,10.50
2023-02-11T17:59:06.018Z,12.17
2023-02-11T18:01:36.063Z,10.93
2023-02-11T18:04:04.574Z,9.50
2023-02-11T18:06:33.746Z,9.90
2023-02-11T18:09:04.148Z,9.47
2023-02-11T18:11:33.192Z,8.43
2023-02-11T18:14:01.571Z,8.40
2023-02-11T18:16:30.441Z,10.70
2023-02-11T18:19:00.358Z,10.73
2023-02-11T18:21:28.637Z,8.00
2023-02-11T18:23:56.946Z,8.70
2023-02-11T18:26:28.021Z,9.17
2023-02-11T18:28:57.702Z,9.50
2023-02-11T18:31:26.386Z,11.00
2023-02-11T18:33:54.789Z,10.07
2023-02-11T18:36:24.565Z,8.87
2023-02-11T18:38:54.058Z,10.20
2023-02-11T18:41:22.437Z,7.10
2023-02-11T18:43:50.715Z,7.40
2023-02-11T18:46:19.091Z,8.00
2023-02-11T18:48:47.598Z,7.50
2023-02-11T18:51:18.310Z,7.40
2023-02-11T18:53:48.570Z,9.43
2023-02-11T18:56:18.830Z,8.30
2023-02-11T18:58:47.146Z,7.70
2023-02-11T19:01:17.743Z,8.90
2023-02-11T19:03:46.381Z,9.80
2023-02-11T19:06:19.740Z,9.23
2023-02-11T19:08:49.686Z,7.90
2023-02-11T19:11:19.720Z,8.07
2023-02-11T19:13:48.758Z,7.33
2023-02-11T19:16:19.772Z,7.90
2023-02-11T19:18:48.645Z,6.90
2023-02-11T19:21:16.958Z,8.17
2023-02-11T19:23:45.257Z,8.03
2023-02-11T19:26:14.944Z,10.60
2023-02-11T19:28:44.671Z,9.60
2023-02-11T19:31:13.013Z,9.00
2023-02-11T19:33:41.647Z,9.17
2023-02-11T19:36:11.857Z,8.87
2023-02-11T19:38:40.153Z,9.80
2023-02-11T19:41:08.917Z,9.13
2023-02-11T19:43:39.221Z,9.33
2023-02-11T19:46:07.609Z,10.20
2023-02-11T19:48:35.987Z,10.27
2023-02-11T19:51:12.779Z,9.97
2023-02-11T19:53:41.415Z,9.10
2023-02-11T19:56:09.998Z,11.10
2023-02-11T19:58:40.039Z,10.33
2023-02-11T20:01:09.167Z,8.50
2023-02-11T20:03:37.680Z,9.47
2023-02-11T20:06:07.233Z,10.70
2023-02-11T20:08:35.529Z,8.37
2023-02-11T20:11:08.633Z,9.60
2023-02-11T20:13:37.666Z,8.70
2023-02-11T20:16:09.809Z,9.17
2023-02-11T20:18:38.079Z,10.07
2023-02-11T20:21:10.335Z,9.70
2023-02-11T20:23:40.296Z,9.30
2023-02-11T20:26:09.394Z,9.30
2023-02-11T20:28:37.965Z,8.80
2023-02-11T20:31:08.071Z,7.73
2023-02-11T20:33:36.371Z,9.17
2023-02-11T20:36:06.748Z,9.67
2023-02-11T20:38:35.135Z,9.50
2023-02-11T20:41:04.516Z,8.70
2023-02-11T20:43:32.841Z,8.83
2023-02-11T20:46:03.737Z,8.87
2023-02-11T20:48:33.514Z,9.57
2023-02-11T20:51:05.097Z,9.33
2023-02-11T20:53:35.319Z,7.93
2023-02-11T20:56:04.262Z,10.10
2023-02-11T20:58:32.584Z,9.63
2023-02-11T21:01:09.416Z,8.90
2023-02-11T21:03:39.065Z,8.23
2023-02-11T21:06:08.040Z,8.50
2023-02-11T21:08:36.638Z,7.90
2023-02-11T21:11:08.470Z,8.27
2023-02-11T21:13:36.992Z,8.27
2023-02-11T21:16:05.888Z,7.67
2023-02-11T21:18:34.218Z,7.03
2023-02-11T21:21:06.931Z,7.40
2023-02-11T21:23:35.760Z,8.20
2023-02-11T21:26:04.011Z,7.40
2023-02-11T21:28:32.385Z,6.67
2023-02-11T21:31:00.858Z,8.23
2023-02-11T21:33:29.854Z,6.70
2023-02-11T21:35:58.379Z,7.77
2023-02-11T21:38:28.142Z,10.90
2023-02-11T21:40:56.512Z,6.53
2023-02-11T21:43:24.920Z,6.93
2023-02-11T21:45:53.556Z,7.03
2023-02-11T21:48:23.794Z,7.10
2023-02-11T21:50:52.174Z,8.27
2023-02-11T21:53:20.629Z,7.93
2023-02-11T21:55:51.276Z,6.00
2023-02-11T21:58:19.660Z,7.13
2023-02-11T22:00:49.169Z,7.90
2023-02-11T22:03:17.724Z,6.87
2023-02-11T22:05:46.021Z,8.40
2023-02-11T22:08:14.353Z,8.23
2023-02-11T22:10:42.575Z,9.03
2023-02-11T22:13:12.221Z,7.63
2023-02-11T22:15:40.529Z,7.87
2023-02-11T22:18:08.795Z,7.73
2023-02-11T22:20:37.122Z,7.53
2023-02-11T22:23:05.513Z,7.80
2023-02-11T22:25:33.837Z,7.57
2023-02-11T22:28:02.156Z,8.30
2023-02-11T22:30:31.887Z,7.70
2023-02-11T22:33:00.389Z,7.63
2023-02-11T22:35:28.747Z,8.27
2023-02-11T22:37:56.968Z,8.30
2023-02-11T22:40:25.405Z,8.40
2023-02-11T22:42:53.685Z,9.60
2023-02-11T22:45:21.927Z,8.47
2023-02-11T22:47:51.574Z,9.47
2023-02-11T22:50:20.082Z,8.97
2023-02-11T22:52:48.377Z,9.10
2023-02-11T22:55:16.863Z,8.30
2023-02-11T22:57:45.162Z,8.33
2023-02-11T23:00:15.631Z,8.10
2023-02-11T23:02:43.964Z,9.17
2023-02-11T23:05:13.755Z,8.53
2023-02-11T23:07:42.051Z,9.20
2023-02-11T23:10:11.765Z,8.70
2023-02-11T23:12:40.102Z,7.60
2023-02-11T23:15:09.554Z,8.10
2023-02-11T23:17:37.813Z,8.60
2023-02-11T23:20:07.868Z,7.90
2023-02-11T23:22:37.575Z,7.33
2023-02-11T23:25:06.567Z,8.70
2023-02-11T23:27:34.853Z,6.70
2023-02-11T23:30:03.445Z,8.10
2023-02-11T23:32:31.818Z,8.90
2023-02-11T23:35:00.285Z,7.80
2023-02-11T23:37:28.573Z,7.83
2023-02-11T23:39:58.325Z,7.33
2023-02-11T23:42:27.542Z,8.00
2023-02-11T23:44:55.839Z,8.43
2023-02-11T23:47:24.048Z,9.07
2023-02-11T23:49:52.353Z,8.10
2023-02-11T23:52:20.663Z,8.87
2023-02-11T23:54:49.462Z,8.10
2023-02-11T23:57:19.872Z,8.90
2023-02-11T23:59:50.145Z,8.87
